Aeroporto :
LOGIN :

Iscrizione | Disclaimer

   EN    FR    IT 

 










Sommario :    VFR   VFR Marginale   IFR   IFR Intensivo   IFR Molto Intensivo
Visibilità : 
Base nubi : 
>= 8 km
>= 3000ft
5 / 8 km
1000 / 3000 ft
1500m / 5 km
500 / 1000 ft
800 / 1500m
200 / 500 ft
< 800m
< 200 ft
Simboli :   Temporali  Nebbia  Neve Forte  Precipitazioni Forti  Vento > 20 kt
SIGMETs :   Varie  Temporali  Ghiacco  Turbolenza  Onda orograficha  Ceneri Vulcaniche






- Altitudine del aeroporto : 22 ft
- Codice IATA : SKG


LGTS - Thessaloniki

ULTIMO METAR :
  • 151320Z 16015KT 9999 FEW025 36/19 Q1009 NOSIG

METARs OBSOLETI :
  • 151250Z 17013KT 9999 FEW025 35/19 Q1009 NOSIG
  • 151220Z 16013KT 9999 FEW025 36/17 Q1009 NOSIG
  • 151150Z 17014KT 9999 FEW025 36/17 Q1009 NOSIG
  • 151120Z 18014KT CAVOK 36/19 Q1010 NOSIG
  • 151050Z 26006KT CAVOK 35/17 Q1010 NOSIG
  • 151020Z 26006KT CAVOK 34/18 Q1010 NOSIG
  • 150950Z 26006KT CAVOK 34/19 Q1010 NOSIG
  • 150920Z 27008KT CAVOK 33/20 Q1010 NOSIG
  • 150850Z 26007KT CAVOK 32/21 Q1011 NOSIG

TAF TAF LGTS
Valido dal 15 a 12 ore il 16 a 12 ore UTC


151100Z 1512/1612 17015KT 9999 FEW030
BECMG 1519/1521 VRB03KT



MetMap, La meteo Aeronautica in un colpo d'occhio ! - Copyright ORBIFLY Dicembre 2007 - Disclaimer

ORBIFLY MET'MAP TEAM :

Programmazione e sviluppo : Alexandra Zaïnal
Concezione : Baudouin d'Aumeries
Supporto tecnico e logistico : Manuel Goepfert
Aiuto : Marc-Olivier Méhu
Aiuto per la traduzione : Arnaldo La Scala




FONTI E CREDITI :

   NOAA